createdAt,value
2023-01-02T00:00:22.516Z,61.81
2023-01-02T00:03:12.785Z,61.82
2023-01-02T00:05:42.964Z,61.81
2023-01-02T00:08:13.524Z,61.94
2023-01-02T00:10:45.011Z,61.84
2023-01-02T00:13:15.348Z,61.94
2023-01-02T00:15:45.762Z,61.82
2023-01-02T00:18:16.069Z,61.78
2023-01-02T00:20:46.237Z,61.77
2023-01-02T00:23:16.703Z,61.80
2023-01-02T00:25:48.878Z,61.77
2023-01-02T00:28:19.231Z,61.85
2023-01-02T00:30:49.718Z,61.75
2023-01-02T00:33:19.982Z,61.86
2023-01-02T00:35:50.329Z,61.84
2023-01-02T00:38:20.875Z,61.86
2023-01-02T00:40:51.097Z,61.81
2023-01-02T00:43:21.384Z,61.81
2023-01-02T00:45:51.755Z,61.77
2023-01-02T00:48:22.229Z,61.88
2023-01-02T00:50:52.835Z,62.02
2023-01-02T00:53:23.356Z,62.16
2023-01-02T00:55:53.548Z,62.02
2023-01-02T00:58:23.944Z,62.01
2023-01-02T01:00:53.942Z,62.11
2023-01-02T01:03:24.159Z,62.09
2023-01-02T01:05:54.637Z,62.17
2023-01-02T01:08:25.195Z,62.12
2023-01-02T01:10:55.695Z,62.11
2023-01-02T01:13:26.093Z,62.18
2023-01-02T01:15:56.152Z,62.05
2023-01-02T01:18:26.046Z,62.06
2023-01-02T01:20:56.233Z,62.19
2023-01-02T01:23:26.323Z,62.13
2023-01-02T01:25:56.522Z,62.14
2023-01-02T01:28:26.778Z,62.05
2023-01-02T01:31:00.998Z,62.03
2023-01-02T01:33:32.541Z,62.09
2023-01-02T01:36:07.849Z,62.15
2023-01-02T01:38:38.813Z,62.04
2023-01-02T01:41:09.817Z,62.04
2023-01-02T01:43:42.287Z,62.04
2023-01-02T01:46:21.082Z,62.05
2023-01-02T01:48:57.925Z,62.21
2023-01-02T01:51:30.178Z,62.24
2023-01-02T01:54:07.453Z,62.18
2023-01-02T01:56:40.575Z,62.24
2023-01-02T01:59:12.278Z,62.33
2023-01-02T02:01:43.861Z,62.18
2023-01-02T02:04:19.112Z,62.13
2023-01-02T02:06:50.420Z,62.05
2023-01-02T02:09:24.421Z,62.20
2023-01-02T02:11:55.856Z,62.26
2023-01-02T02:14:26.063Z,62.28
2023-01-02T02:17:04.204Z,62.19
2023-01-02T02:19:56.788Z,62.16
2023-01-02T02:22:58.265Z,62.27
2023-01-02T02:25:49.039Z,62.36
2023-01-02T02:28:48.870Z,62.37
2023-01-02T02:31:24.883Z,62.33
2023-01-02T02:33:59.069Z,62.39
2023-01-02T02:36:35.025Z,62.34
2023-01-02T02:39:18.932Z,62.32
2023-01-02T02:41:58.133Z,62.27
2023-01-02T02:44:42.253Z,62.32
2023-01-02T02:47:21.008Z,62.34
2023-01-02T02:49:59.393Z,62.35
2023-01-02T02:52:33.355Z,62.31
2023-01-02T02:55:10.182Z,62.48
2023-01-02T02:57:42.639Z,62.35
2023-01-02T03:00:16.094Z,62.33
2023-01-02T03:02:46.857Z,62.44
2023-01-02T03:05:24.208Z,62.44
2023-01-02T03:08:02.035Z,62.43
2023-01-02T03:10:44.782Z,62.41
2023-01-02T03:13:23.816Z,62.33
2023-01-02T03:16:05.096Z,62.38
2023-01-02T03:18:40.551Z,62.43
2023-01-02T03:21:14.739Z,62.31
2023-01-02T03:23:47.407Z,62.48
2023-01-02T03:26:20.813Z,62.61
2023-01-02T03:28:57.294Z,62.43
2023-01-02T03:31:31.230Z,62.45
2023-01-02T03:34:05.084Z,62.31
2023-01-02T03:36:38.102Z,62.38
2023-01-02T03:39:12.501Z,62.42
2023-01-02T03:41:47.077Z,62.46
2023-01-02T03:44:20.403Z,62.28
2023-01-02T03:46:53.193Z,62.28
2023-01-02T03:49:28.176Z,62.33
2023-01-02T03:51:59.115Z,62.44
2023-01-02T03:54:30.675Z,62.79
2023-01-02T03:57:05.304Z,62.80
2023-01-02T03:59:47.585Z,62.82
2023-01-02T04:02:26.846Z,62.73
2023-01-02T04:05:02.402Z,62.87
2023-01-02T04:07:38.836Z,62.91
2023-01-02T04:10:11.748Z,62.91
2023-01-02T04:12:44.752Z,62.98
2023-01-02T04:15:18.754Z,63.02
2023-01-02T04:17:53.222Z,63.04
2023-01-02T04:20:28.076Z,62.98
2023-01-02T04:23:05.661Z,62.93
2023-01-02T04:25:42.391Z,62.92
2023-01-02T04:28:17.511Z,62.96
2023-01-02T04:30:51.484Z,63.01
2023-01-02T04:33:25.224Z,63.07
2023-01-02T04:35:56.239Z,63.22
2023-01-02T04:38:26.673Z,63.27
2023-01-02T04:40:57.115Z,63.36
2023-01-02T04:43:27.449Z,63.50
2023-01-02T04:45:57.831Z,63.60
2023-01-02T04:48:27.925Z,63.75
2023-01-02T04:50:58.229Z,63.83
2023-01-02T04:53:28.543Z,63.98
2023-01-02T04:55:59.000Z,64.15
2023-01-02T04:58:29.673Z,64.31
2023-01-02T05:01:00.242Z,64.25
2023-01-02T05:03:30.272Z,64.17
2023-01-02T05:06:03.987Z,64.13
2023-01-02T05:08:34.691Z,64.06
2023-01-02T05:11:07.831Z,64.09
2023-01-02T05:13:37.806Z,64.20
2023-01-02T05:16:09.817Z,64.37
2023-01-02T05:18:40.443Z,64.34
2023-01-02T05:21:33.240Z,64.55
2023-01-02T05:24:05.585Z,64.58
2023-01-02T05:26:35.765Z,64.55
2023-01-02T05:29:05.813Z,64.63
2023-01-02T05:31:35.650Z,64.64
2023-01-02T05:34:07.275Z,64.65
2023-01-02T05:36:37.696Z,64.76
2023-01-02T05:39:11.754Z,64.74
2023-01-02T05:41:42.457Z,64.71
2023-01-02T05:44:12.795Z,64.52
2023-01-02T05:46:42.927Z,64.68
2023-01-02T05:49:13.241Z,64.73
2023-01-02T05:51:43.683Z,64.74
2023-01-02T05:54:13.750Z,64.74
2023-01-02T05:56:45.462Z,64.66
2023-01-02T05:59:16.343Z,64.76
2023-01-02T06:01:48.596Z,64.89
2023-01-02T06:04:19.959Z,65.03
2023-01-02T06:06:50.043Z,65.15
2023-01-02T06:09:20.364Z,65.25
2023-01-02T06:11:50.779Z,65.29
2023-01-02T06:14:21.920Z,65.39
2023-01-02T06:16:51.928Z,65.48
2023-01-02T06:19:21.925Z,65.64
2023-01-02T06:21:52.480Z,65.72
2023-01-02T06:24:22.876Z,65.67
2023-01-02T06:26:53.405Z,65.86
2023-01-02T06:29:23.622Z,65.94
2023-01-02T06:31:53.637Z,65.88
2023-01-02T06:34:24.306Z,65.89
2023-01-02T06:36:55.267Z,66.17
2023-01-02T06:39:26.207Z,66.20
2023-01-02T06:41:56.640Z,66.20
2023-01-02T06:44:26.757Z,66.41
2023-01-02T06:46:57.442Z,66.49
2023-01-02T06:49:27.981Z,66.50
2023-01-02T06:51:57.971Z,66.69
2023-01-02T06:54:28.630Z,66.89
2023-01-02T06:56:58.794Z,66.96
2023-01-02T06:59:29.211Z,67.10
2023-01-02T07:01:59.164Z,67.21
2023-01-02T07:04:29.848Z,67.19
2023-01-02T07:07:01.054Z,67.32
2023-01-02T07:09:31.966Z,67.51
2023-01-02T07:12:02.802Z,67.61
2023-01-02T07:14:33.391Z,67.79
2023-01-02T07:17:04.091Z,67.71
2023-01-02T07:19:34.171Z,67.89
2023-01-02T07:22:04.450Z,67.80
2023-01-02T07:24:34.872Z,67.70
2023-01-02T07:27:05.785Z,67.48
2023-01-02T07:29:36.247Z,67.42
2023-01-02T07:32:07.037Z,67.51
2023-01-02T07:34:37.287Z,67.44
2023-01-02T07:37:07.543Z,67.49
2023-01-02T07:39:37.839Z,67.60
2023-01-02T07:42:08.206Z,67.61
2023-01-02T07:44:38.630Z,67.58
2023-01-02T07:47:09.295Z,67.52
2023-01-02T07:49:39.320Z,67.47
2023-01-02T07:52:11.722Z,67.46
2023-01-02T07:54:41.886Z,67.58
2023-01-02T07:57:12.118Z,67.49
2023-01-02T07:59:44.637Z,67.59
2023-01-02T08:02:15.617Z,67.55
2023-01-02T08:04:45.668Z,67.45
2023-01-02T08:07:15.915Z,67.42
2023-01-02T08:09:46.768Z,67.39
2023-01-02T08:12:17.302Z,67.46
2023-01-02T08:14:47.722Z,67.51
2023-01-02T08:17:18.068Z,67.28
2023-01-02T08:19:48.680Z,67.35
2023-01-02T08:22:19.433Z,67.30
2023-01-02T08:24:49.777Z,67.29
2023-01-02T08:27:19.929Z,67.00
2023-01-02T08:29:51.435Z,67.16
2023-01-02T08:32:22.004Z,66.63
2023-01-02T08:34:52.605Z,66.45
2023-01-02T08:37:23.130Z,66.54
2023-01-02T08:39:53.753Z,66.45
2023-01-02T08:42:24.277Z,66.41
2023-01-02T08:44:54.672Z,66.26
2023-01-02T08:47:24.862Z,66.23
2023-01-02T08:49:55.146Z,66.26
2023-01-02T08:52:25.568Z,66.00
2023-01-02T08:54:55.902Z,65.66
2023-01-02T08:57:26.481Z,65.53
2023-01-02T08:59:57.360Z,65.24
2023-01-02T09:02:27.846Z,65.14
2023-01-02T09:04:58.698Z,65.04
2023-01-02T09:07:31.981Z,64.96
2023-01-02T09:10:02.465Z,64.94
2023-01-02T09:12:32.782Z,64.67
2023-01-02T09:15:03.349Z,64.74
2023-01-02T09:17:33.852Z,64.46
2023-01-02T09:20:05.111Z,64.71
2023-01-02T09:22:35.679Z,64.52
2023-01-02T09:25:07.875Z,64.46
2023-01-02T09:27:38.223Z,64.45
2023-01-02T09:30:10.115Z,64.21
2023-01-02T09:32:40.259Z,63.85
2023-01-02T09:35:11.532Z,64.02
2023-01-02T09:37:41.751Z,64.04
2023-01-02T09:40:14.770Z,63.73
2023-01-02T09:42:45.916Z,63.70
2023-01-02T09:45:16.735Z,63.33
2023-01-02T09:47:48.191Z,63.33
2023-01-02T09:50:25.361Z,63.35
2023-01-02T09:52:58.405Z,63.03
2023-01-02T09:55:38.473Z,63.02
2023-01-02T09:58:16.088Z,62.73
2023-01-02T10:00:49.887Z,62.45
2023-01-02T10:03:29.496Z,62.48
2023-01-02T10:06:08.771Z,62.25
2023-01-02T10:08:48.668Z,62.29
2023-01-02T10:11:32.042Z,62.15
2023-01-02T10:14:26.320Z,62.06
2023-01-02T10:16:59.761Z,61.81
2023-01-02T10:19:40.843Z,61.67
2023-01-02T10:22:14.098Z,61.92
2023-01-02T10:24:49.242Z,61.75
2023-01-02T10:27:24.885Z,61.56
2023-01-02T10:30:15.608Z,61.27
2023-01-02T10:32:53.693Z,61.12
2023-01-02T10:35:35.166Z,61.49
2023-01-02T10:38:06.220Z,61.35
2023-01-02T10:40:38.206Z,61.67
2023-01-02T10:43:10.364Z,61.47
2023-01-02T10:45:40.990Z,61.56
2023-01-02T10:48:12.412Z,61.53
2023-01-02T10:50:48.810Z,60.98
2023-01-02T10:53:29.661Z,60.83
2023-01-02T10:56:03.210Z,60.72
2023-01-02T10:58:35.295Z,60.75
2023-01-02T11:01:12.983Z,60.57
2023-01-02T11:03:44.208Z,60.38
2023-01-02T11:06:27.487Z,60.49
2023-01-02T11:09:00.155Z,60.60
2023-01-02T11:11:33.419Z,60.35
2023-01-02T11:14:10.654Z,60.60
2023-01-02T11:16:42.244Z,60.55
2023-01-02T11:19:27.454Z,60.59
2023-01-02T11:22:00.144Z,60.45
2023-01-02T11:24:32.360Z,60.51
2023-01-02T11:27:04.276Z,60.19
2023-01-02T11:29:36.919Z,60.36
2023-01-02T11:32:07.437Z,60.29
2023-01-02T11:34:39.698Z,60.13
2023-01-02T11:37:17.629Z,60.22
2023-01-02T11:40:00.672Z,60.21
2023-01-02T11:42:59.118Z,60.00
2023-01-02T11:45:28.935Z,59.70
2023-01-02T11:48:03.159Z,59.65
2023-01-02T11:50:37.059Z,59.83
2023-01-02T11:53:16.051Z,59.46
2023-01-02T11:55:52.926Z,59.22
2023-01-02T11:58:31.276Z,59.32
2023-01-02T12:01:07.158Z,59.63
2023-01-02T12:03:37.541Z,59.61
2023-01-02T12:06:18.529Z,59.71
2023-01-02T12:09:01.365Z,59.35
2023-01-02T12:11:53.860Z,59.34
2023-01-02T12:14:37.805Z,59.31
2023-01-02T12:17:14.371Z,59.17
2023-01-02T12:20:15.014Z,59.39
2023-01-02T12:23:14.389Z,59.37
2023-01-02T12:25:53.237Z,59.42
2023-01-02T12:28:45.075Z,59.04
2023-01-02T12:31:32.729Z,58.64
2023-01-02T12:34:13.524Z,58.60
2023-01-02T12:36:59.965Z,58.68
2023-01-02T12:39:59.181Z,58.76
2023-01-02T12:42:48.445Z,58.59
2023-01-02T12:45:28.601Z,58.26
2023-01-02T12:48:19.334Z,58.43
2023-01-02T12:51:13.642Z,58.24
2023-01-02T12:54:20.245Z,57.85
2023-01-02T12:57:02.781Z,58.01
2023-01-02T13:00:08.075Z,57.64
2023-01-02T13:03:01.031Z,57.61
2023-01-02T13:05:35.614Z,57.08
2023-01-02T13:08:13.599Z,57.16
2023-01-02T13:10:46.171Z,56.95
2023-01-02T13:13:17.697Z,56.80
2023-01-02T13:15:52.403Z,56.80
2023-01-02T13:18:28.832Z,56.54
2023-01-02T13:21:06.964Z,56.62
2023-01-02T13:23:40.611Z,56.45
2023-01-02T13:26:14.953Z,56.65
2023-01-02T13:28:55.301Z,56.56
2023-01-02T13:34:22.039Z,56.67
2023-01-02T13:37:01.259Z,56.52
2023-01-02T13:39:44.206Z,56.62
2023-01-02T13:42:43.157Z,56.88
2023-01-02T13:45:18.293Z,57.03
2023-01-02T13:47:53.609Z,57.11
2023-01-02T13:50:29.461Z,57.23
2023-01-02T13:53:30.022Z,57.32
2023-01-02T13:56:11.110Z,57.43
2023-01-02T13:59:00.475Z,57.55
2023-01-02T14:02:06.747Z,57.61
2023-01-02T14:04:41.442Z,57.55
2023-01-02T14:07:45.770Z,57.48
2023-01-02T14:10:24.405Z,57.61
2023-01-02T14:13:03.777Z,57.70
2023-01-02T14:15:42.984Z,57.74
2023-01-02T14:18:30.222Z,57.82
2023-01-02T14:21:02.625Z,57.94
2023-01-02T14:23:39.937Z,57.94
2023-01-02T14:26:25.580Z,58.07
2023-01-02T14:28:56.696Z,58.19
2023-01-02T14:31:35.051Z,58.14
2023-01-02T14:34:05.544Z,58.29
2023-01-02T14:36:44.435Z,58.34
2023-01-02T14:39:23.602Z,58.41
2023-01-02T14:42:31.539Z,58.60
2023-01-02T14:45:09.581Z,58.62
2023-01-02T14:47:42.730Z,58.66
2023-01-02T14:50:17.817Z,58.83
2023-01-02T14:52:53.374Z,58.90
2023-01-02T14:55:27.605Z,58.97
2023-01-02T14:57:59.530Z,59.11
2023-01-02T15:00:35.124Z,59.28
2023-01-02T15:03:21.898Z,59.22
2023-01-02T15:05:58.545Z,59.42
2023-01-02T15:08:36.956Z,59.55
2023-01-02T15:11:36.982Z,59.65
2023-01-02T15:14:10.064Z,59.67
2023-01-02T15:16:45.341Z,59.83
2023-01-02T15:19:21.280Z,59.78
2023-01-02T15:21:52.470Z,59.84
2023-01-02T15:24:26.173Z,59.91
2023-01-02T15:27:12.253Z,59.98
2023-01-02T15:29:48.065Z,60.02
2023-01-02T15:32:22.224Z,60.15
2023-01-02T15:34:52.617Z,60.25
2023-01-02T15:37:24.272Z,60.16
2023-01-02T15:39:56.036Z,60.34
2023-01-02T15:42:46.310Z,60.48
2023-01-02T15:45:18.488Z,60.56
2023-01-02T15:47:50.768Z,60.58
2023-01-02T15:50:24.287Z,60.76
2023-01-02T15:52:59.583Z,60.87
2023-01-02T15:55:35.677Z,60.94
2023-01-02T15:58:25.757Z,61.04
2023-01-02T16:01:17.667Z,61.08
2023-01-02T16:04:02.072Z,61.20
2023-01-02T16:06:39.469Z,61.20
2023-01-02T16:09:19.577Z,61.37
2023-01-02T16:11:52.582Z,61.47
2023-01-02T16:14:31.204Z,61.48
2023-01-02T16:17:02.960Z,61.57
2023-01-02T16:19:37.460Z,61.64
2023-01-02T16:22:16.645Z,61.73
2023-01-02T16:24:55.615Z,61.86
2023-01-02T16:27:29.117Z,61.73
2023-01-02T16:30:00.682Z,61.89
2023-01-02T16:32:32.579Z,61.88
2023-01-02T16:35:19.018Z,62.03
2023-01-02T16:37:57.867Z,62.06
2023-01-02T16:41:00.349Z,62.01
2023-01-02T16:43:42.925Z,62.21
2023-01-02T16:46:16.549Z,62.34
2023-01-02T16:48:47.171Z,62.39
2023-01-02T16:51:17.719Z,62.37
2023-01-02T16:53:48.683Z,62.31
2023-01-02T16:56:19.121Z,62.47
2023-01-02T16:58:50.148Z,62.46
2023-01-02T17:01:23.095Z,62.50
2023-01-02T17:03:54.053Z,62.63
2023-01-02T17:06:24.784Z,62.69
2023-01-02T17:08:55.414Z,62.68
2023-01-02T17:11:26.553Z,62.73
2023-01-02T17:13:58.299Z,62.96
2023-01-02T17:16:29.034Z,62.97
2023-01-02T17:19:00.075Z,62.93
2023-01-02T17:21:32.975Z,63.16
2023-01-02T17:24:03.794Z,63.14
2023-01-02T17:26:36.471Z,63.25
2023-01-02T17:29:07.641Z,63.40
2023-01-02T17:31:38.870Z,63.50
2023-01-02T17:34:10.503Z,63.77
2023-01-02T17:36:42.294Z,63.84
2023-01-02T17:39:13.441Z,63.96
2023-01-02T17:41:45.114Z,64.29
2023-01-02T17:44:18.876Z,64.39
2023-01-02T17:47:15.594Z,64.37
2023-01-02T17:49:42.513Z,64.47
2023-01-02T17:52:13.432Z,64.49
2023-01-02T17:54:48.555Z,64.56
2023-01-02T17:57:22.839Z,64.67
2023-01-02T17:59:53.995Z,65.02
2023-01-02T18:02:25.751Z,65.16
2023-01-02T18:04:56.813Z,65.18
2023-01-02T18:07:27.723Z,65.26
2023-01-02T18:10:09.188Z,65.38
2023-01-02T18:12:42.339Z,65.72
2023-01-02T18:15:16.003Z,65.96
2023-01-02T18:17:48.650Z,66.16
2023-01-02T18:20:22.896Z,66.26
2023-01-02T18:22:54.119Z,66.26
2023-01-02T18:25:26.953Z,66.14
2023-01-02T18:28:02.932Z,66.22
2023-01-02T18:30:34.165Z,66.29
2023-01-02T18:33:13.864Z,66.32
2023-01-02T18:36:02.444Z,66.58
2023-01-02T18:38:37.382Z,66.48
2023-01-02T18:41:17.404Z,66.62
2023-01-02T18:43:49.823Z,66.83
2023-01-02T18:46:24.133Z,66.77
2023-01-02T18:48:55.824Z,66.63
2023-01-02T18:51:28.121Z,66.68
2023-01-02T18:54:00.127Z,66.81
2023-01-02T18:56:33.088Z,66.99
2023-01-02T18:59:09.980Z,67.08
2023-01-02T19:01:49.197Z,67.10
2023-01-02T19:04:28.431Z,67.18
2023-01-02T19:07:03.066Z,67.15
2023-01-02T19:09:35.613Z,67.36
2023-01-02T19:13:00.322Z,67.44
2023-01-02T19:15:46.013Z,67.53
2023-01-02T19:18:39.080Z,67.54
2023-01-02T19:21:18.288Z,67.50
2023-01-02T19:23:57.659Z,67.60
2023-01-02T19:26:35.885Z,67.66
2023-01-02T19:29:17.105Z,67.62
2023-01-02T19:31:59.269Z,67.58
2023-01-02T19:34:45.442Z,67.55
2023-01-02T19:37:29.108Z,67.49
2023-01-02T19:40:02.661Z,67.69
2023-01-02T19:42:35.650Z,67.63
2023-01-02T19:45:09.881Z,67.69
2023-01-02T19:47:42.729Z,67.66
2023-01-02T19:50:16.247Z,67.66
2023-01-02T19:52:48.250Z,67.59
2023-01-02T19:55:19.854Z,67.51
2023-01-02T19:57:54.159Z,67.50
2023-01-02T20:00:26.694Z,67.43
2023-01-02T20:02:59.361Z,67.37
2023-01-02T20:05:35.346Z,67.30
2023-01-02T20:08:10.278Z,67.35
2023-01-02T20:10:42.521Z,67.20
2023-01-02T20:13:15.069Z,67.16
2023-01-02T20:15:45.953Z,67.08
2023-01-02T20:18:19.400Z,67.00
2023-01-02T20:20:51.432Z,66.83
2023-01-02T20:23:25.806Z,66.85
2023-01-02T20:25:57.043Z,66.80
2023-01-02T20:28:29.554Z,66.74
2023-01-02T20:31:01.196Z,66.66
2023-01-02T20:33:33.837Z,66.68
2023-01-02T20:36:13.318Z,66.69
2023-01-02T20:38:48.035Z,66.56
2023-01-02T20:41:20.593Z,66.49
2023-01-02T20:43:52.312Z,66.46
2023-01-02T20:46:26.461Z,66.41
2023-01-02T20:48:59.045Z,66.39
2023-01-02T20:51:32.541Z,66.31
2023-01-02T20:54:06.281Z,66.12
2023-01-02T20:56:40.040Z,66.08
2023-01-02T20:59:13.212Z,65.98
2023-01-02T21:01:55.162Z,65.99
2023-01-02T21:04:34.470Z,65.79
2023-01-02T21:07:08.578Z,65.95
2023-01-02T21:09:40.710Z,66.06
2023-01-02T21:12:27.536Z,66.04
2023-01-02T21:15:01.255Z,65.95
2023-01-02T21:17:33.001Z,65.93
2023-01-02T21:20:05.358Z,65.91
2023-01-02T21:22:36.521Z,66.09
2023-01-02T21:25:09.756Z,66.10
2023-01-02T21:27:41.102Z,66.05
2023-01-02T21:30:14.281Z,66.12
2023-01-02T21:32:46.563Z,66.24
2023-01-02T21:35:17.484Z,66.28
2023-01-02T21:37:48.439Z,66.38
2023-01-02T21:40:19.053Z,66.33
2023-01-02T21:42:49.806Z,66.34
2023-01-02T21:45:20.419Z,66.29
2023-01-02T21:47:51.425Z,66.30
2023-01-02T21:50:21.804Z,66.21
2023-01-02T21:52:53.472Z,66.11
2023-01-02T21:55:24.908Z,66.02
2023-01-02T22:00:46.223Z,65.93
2023-01-02T22:03:17.287Z,65.98
2023-01-02T22:05:48.015Z,65.83
2023-01-02T22:08:18.596Z,65.72
2023-01-02T22:10:49.270Z,65.65
2023-01-02T22:13:19.318Z,65.57
2023-01-02T22:15:49.987Z,65.49
2023-01-02T22:18:20.773Z,65.41
2023-01-02T22:20:51.224Z,65.42
2023-01-02T22:23:21.641Z,65.36
2023-01-02T22:25:52.351Z,65.38
2023-01-02T22:28:23.063Z,65.41
2023-01-02T22:30:54.217Z,65.31
2023-01-02T22:33:24.433Z,65.34
2023-01-02T22:35:54.836Z,65.37
2023-01-02T22:38:25.174Z,65.35
2023-01-02T22:40:55.748Z,65.44
2023-01-02T22:43:26.171Z,65.43
2023-01-02T22:46:00.000Z,65.37
2023-01-02T22:48:34.835Z,65.52
2023-01-02T22:51:10.360Z,65.64
2023-01-02T22:53:41.524Z,65.57
2023-01-02T22:56:15.456Z,65.62
2023-01-02T22:58:46.904Z,65.63
2023-01-02T23:01:19.783Z,65.62
2023-01-02T23:03:51.987Z,65.69
2023-01-02T23:06:22.875Z,65.71
2023-01-02T23:08:54.162Z,65.74
2023-01-02T23:11:24.756Z,65.78
2023-01-02T23:13:56.864Z,65.72
2023-01-02T23:16:41.978Z,65.67
2023-01-02T23:19:15.682Z,65.76
2023-01-02T23:21:48.209Z,65.86
2023-01-02T23:24:20.157Z,65.81
2023-01-02T23:26:52.006Z,65.89
2023-01-02T23:29:23.172Z,65.90
2023-01-02T23:31:54.386Z,65.75
2023-01-02T23:34:27.025Z,65.76
2023-01-02T23:36:59.543Z,65.74
2023-01-02T23:39:32.789Z,65.76
2023-01-02T23:42:03.755Z,65.74
2023-01-02T23:44:34.798Z,65.82
2023-01-02T23:47:09.470Z,65.61
2023-01-02T23:49:41.188Z,65.50
2023-01-02T23:52:12.147Z,65.39
2023-01-02T23:54:43.119Z,65.27
2023-01-02T23:57:13.265Z,65.09
2023-01-02T23:59:43.855Z,65.01
